createdAt,value
2022-10-17T00:00:47.021Z,78.85
2022-10-17T00:03:36.560Z,78.82
2022-10-17T00:06:10.657Z,79.02
2022-10-17T00:08:43.526Z,78.75
2022-10-17T00:11:19.592Z,78.67
2022-10-17T00:13:56.929Z,78.90
2022-10-17T00:16:30.280Z,78.77
2022-10-17T00:19:02.683Z,78.95
2022-10-17T00:21:34.880Z,78.89
2022-10-17T00:24:07.960Z,78.70
2022-10-17T00:26:39.551Z,78.79
2022-10-17T00:29:11.312Z,78.82
2022-10-17T00:31:43.012Z,78.83
2022-10-17T00:34:16.292Z,78.94
2022-10-17T00:36:47.797Z,79.25
2022-10-17T00:39:20.180Z,79.18
2022-10-17T00:41:51.859Z,79.36
2022-10-17T00:44:59.919Z,79.27
2022-10-17T00:47:32.123Z,79.31
2022-10-17T00:50:05.409Z,79.41
2022-10-17T00:52:43.344Z,79.52
2022-10-17T00:55:19.927Z,79.36
2022-10-17T00:57:52.643Z,79.51
2022-10-17T01:00:28.229Z,79.49
2022-10-17T01:02:59.752Z,79.58
2022-10-17T01:05:31.879Z,79.62
2022-10-17T01:08:04.180Z,79.57
2022-10-17T01:10:44.955Z,79.63
2022-10-17T01:13:23.157Z,79.60
2022-10-17T01:16:07.775Z,79.77
2022-10-17T01:18:57.475Z,79.63
2022-10-17T01:21:45.758Z,79.74
2022-10-17T01:24:37.017Z,79.63
2022-10-17T01:27:30.620Z,79.59
2022-10-17T01:30:22.882Z,79.52
2022-10-17T01:33:01.964Z,79.69
2022-10-17T01:35:39.550Z,79.64
2022-10-17T01:38:15.966Z,79.62
2022-10-17T01:40:54.844Z,79.51
2022-10-17T01:43:33.946Z,79.60
2022-10-17T01:46:12.958Z,79.67
2022-10-17T01:48:47.099Z,79.61
2022-10-17T01:51:22.594Z,79.65
2022-10-17T01:54:00.674Z,79.82
2022-10-17T01:56:35.479Z,79.88
2022-10-17T01:59:12.097Z,79.90
2022-10-17T02:01:45.457Z,80.00
2022-10-17T02:04:18.782Z,79.91
2022-10-17T02:06:50.344Z,79.82
2022-10-17T02:09:25.454Z,79.73
2022-10-17T02:12:13.378Z,79.59
2022-10-17T02:15:00.277Z,79.77
2022-10-17T02:17:44.629Z,79.71
2022-10-17T02:20:27.610Z,79.84
2022-10-17T02:23:07.269Z,79.80
2022-10-17T02:25:46.400Z,79.74
2022-10-17T02:28:25.643Z,79.84
2022-10-17T02:31:07.669Z,80.02
2022-10-17T02:33:46.415Z,80.19
2022-10-17T02:36:29.452Z,80.40
2022-10-17T02:39:02.728Z,80.53
2022-10-17T02:41:37.221Z,80.60
2022-10-17T02:44:09.859Z,80.79
2022-10-17T02:46:46.495Z,80.78
2022-10-17T02:49:20.758Z,80.78
2022-10-17T02:51:59.851Z,80.76
2022-10-17T02:54:39.916Z,80.42
2022-10-17T02:57:16.330Z,80.62
2022-10-17T02:59:48.758Z,80.69
2022-10-17T03:02:23.142Z,80.43
2022-10-17T03:04:54.703Z,80.88
2022-10-17T03:07:26.273Z,80.77
2022-10-17T03:09:57.805Z,80.76
2022-10-17T03:12:31.252Z,80.64
2022-10-17T03:15:03.242Z,80.57
2022-10-17T03:17:35.006Z,80.39
2022-10-17T03:20:12.284Z,80.33
2022-10-17T03:22:45.492Z,80.19
2022-10-17T03:25:23.408Z,80.17
2022-10-17T03:27:55.156Z,80.05
2022-10-17T03:30:26.669Z,80.14
2022-10-17T03:33:00.843Z,80.17
2022-10-17T03:35:32.477Z,80.24
2022-10-17T03:38:04.130Z,80.24
2022-10-17T03:40:35.678Z,80.35
2022-10-17T03:43:08.128Z,80.29
2022-10-17T03:45:39.642Z,80.35
2022-10-17T03:48:11.296Z,80.10
2022-10-17T03:50:42.997Z,80.38
2022-10-17T03:53:15.320Z,80.43
2022-10-17T03:55:46.953Z,80.69
2022-10-17T03:58:18.533Z,80.75
2022-10-17T04:00:50.129Z,80.91
2022-10-17T04:03:23.313Z,80.97
2022-10-17T04:05:54.862Z,80.82
2022-10-17T04:08:26.706Z,80.79
2022-10-17T04:11:02.216Z,80.69
2022-10-17T04:13:34.407Z,80.66
2022-10-17T04:16:07.989Z,80.79
2022-10-17T04:18:39.551Z,80.72
2022-10-17T04:21:12.397Z,80.54
2022-10-17T04:23:44.731Z,80.54
2022-10-17T04:26:16.403Z,80.52
2022-10-17T04:28:48.064Z,80.34
2022-10-17T04:31:20.003Z,80.34
2022-10-17T04:33:53.116Z,80.23
2022-10-17T04:36:24.792Z,80.22
2022-10-17T04:38:56.403Z,80.28
2022-10-17T04:41:28.003Z,80.37
2022-10-17T04:43:59.665Z,80.52
2022-10-17T04:46:31.342Z,80.54
2022-10-17T04:49:02.940Z,80.59
2022-10-17T04:51:34.539Z,80.71
2022-10-17T04:54:06.982Z,80.64
2022-10-17T04:56:38.735Z,80.42
2022-10-17T04:59:11.125Z,80.51
2022-10-17T05:01:42.944Z,80.71
2022-10-17T05:04:15.291Z,80.69
2022-10-17T05:06:46.763Z,81.20
2022-10-17T05:09:18.357Z,80.89
2022-10-17T05:11:50.054Z,80.98
2022-10-17T05:14:22.515Z,80.97
2022-10-17T05:16:54.027Z,80.97
2022-10-17T05:19:25.935Z,80.80
2022-10-17T05:21:58.453Z,80.78
2022-10-17T05:24:30.889Z,80.85
2022-10-17T05:27:02.892Z,80.78
2022-10-17T05:29:35.304Z,80.74
2022-10-17T05:32:07.775Z,80.99
2022-10-17T05:34:40.198Z,80.84
2022-10-17T05:37:11.740Z,81.14
2022-10-17T05:39:45.070Z,81.12
2022-10-17T05:42:18.281Z,81.27
2022-10-17T05:44:50.001Z,81.21
2022-10-17T05:47:21.606Z,81.11
2022-10-17T05:49:53.303Z,81.19
2022-10-17T05:52:25.628Z,81.13
2022-10-17T05:54:57.331Z,81.36
2022-10-17T05:57:29.626Z,81.48
2022-10-17T06:00:05.052Z,81.14
2022-10-17T06:02:40.472Z,81.31
2022-10-17T06:05:32.201Z,81.75
2022-10-17T06:08:58.033Z,82.09
2022-10-17T06:11:46.493Z,82.41
2022-10-17T06:14:18.125Z,82.69
2022-10-17T06:16:49.780Z,82.80
2022-10-17T06:19:22.622Z,82.55
2022-10-17T06:21:55.651Z,81.92
2022-10-17T06:24:27.460Z,81.79
2022-10-17T06:26:59.895Z,81.41
2022-10-17T06:29:31.539Z,81.14
2022-10-17T06:32:04.026Z,81.30
2022-10-17T06:34:35.793Z,81.25
2022-10-17T06:37:08.277Z,81.14
2022-10-17T06:39:39.960Z,81.05
2022-10-17T06:42:13.382Z,81.26
2022-10-17T06:44:44.853Z,81.69
2022-10-17T06:47:19.242Z,81.81
2022-10-17T06:49:51.802Z,81.79
2022-10-17T06:52:23.533Z,82.14
2022-10-17T06:54:55.389Z,82.13
2022-10-17T06:57:27.492Z,81.99
2022-10-17T06:59:59.344Z,81.91
2022-10-17T07:02:31.282Z,82.02
2022-10-17T07:05:03.791Z,81.83
2022-10-17T07:07:38.855Z,81.72
2022-10-17T07:10:13.597Z,81.68
2022-10-17T07:12:46.668Z,81.45
2022-10-17T07:15:18.405Z,81.24
2022-10-17T07:17:52.308Z,81.21
2022-10-17T07:20:24.152Z,81.04
2022-10-17T07:22:55.886Z,80.75
2022-10-17T07:25:28.509Z,80.78
2022-10-17T07:28:00.215Z,80.43
2022-10-17T07:30:31.877Z,80.12
2022-10-17T07:33:03.593Z,79.70
2022-10-17T07:35:35.225Z,79.64
2022-10-17T07:38:06.851Z,79.44
2022-10-17T07:40:38.712Z,79.22
2022-10-17T07:43:11.224Z,79.15
2022-10-17T07:45:43.559Z,78.74
2022-10-17T07:48:15.180Z,78.58
2022-10-17T07:50:47.080Z,78.28
2022-10-17T07:53:19.406Z,78.23
2022-10-17T07:55:51.487Z,77.92
2022-10-17T07:58:23.068Z,77.53
2022-10-17T08:00:54.726Z,77.71
2022-10-17T08:03:26.523Z,77.50
2022-10-17T08:06:04.093Z,77.37
2022-10-17T08:08:36.406Z,77.28
2022-10-17T08:11:10.317Z,77.08
2022-10-17T08:13:42.793Z,76.73
2022-10-17T08:16:15.029Z,76.70
2022-10-17T08:18:46.640Z,76.48
2022-10-17T08:21:18.176Z,76.23
2022-10-17T08:23:50.651Z,76.01
2022-10-17T08:26:23.006Z,75.89
2022-10-17T08:28:54.781Z,75.69
2022-10-17T08:31:27.364Z,75.36
2022-10-17T08:34:00.638Z,75.00
2022-10-17T08:36:32.150Z,74.30
2022-10-17T08:39:03.893Z,73.80
2022-10-17T08:42:00.684Z,73.18
2022-10-17T08:44:47.741Z,73.36
2022-10-17T08:47:28.040Z,73.71
2022-10-17T08:50:03.272Z,73.34
2022-10-17T08:52:41.352Z,73.30
2022-10-17T08:55:20.947Z,73.16
2022-10-17T08:57:52.611Z,72.98
2022-10-17T09:00:29.324Z,72.46
2022-10-17T09:03:17.074Z,72.22
2022-10-17T09:05:55.367Z,72.11
2022-10-17T09:08:44.151Z,72.09
2022-10-17T09:11:28.552Z,71.64
2022-10-17T09:14:14.155Z,71.32
2022-10-17T09:17:02.442Z,71.06
2022-10-17T09:19:37.527Z,70.71
2022-10-17T09:22:16.086Z,70.98
2022-10-17T09:24:50.907Z,70.78
2022-10-17T09:27:26.487Z,70.35
2022-10-17T09:30:26.859Z,70.67
2022-10-17T09:32:58.800Z,69.49
2022-10-17T09:35:31.384Z,69.53
2022-10-17T09:38:03.203Z,69.17
2022-10-17T09:40:37.779Z,69.15
2022-10-17T09:43:12.598Z,67.63
2022-10-17T09:45:57.135Z,68.21
2022-10-17T09:48:33.865Z,67.85
2022-10-17T09:51:15.107Z,67.95
2022-10-17T09:54:03.831Z,67.81
2022-10-17T09:57:02.460Z,67.92
2022-10-17T09:59:36.608Z,66.65
2022-10-17T10:02:21.000Z,67.64
2022-10-17T10:05:06.467Z,66.25
2022-10-17T10:07:40.412Z,65.95
2022-10-17T10:10:30.250Z,65.74
2022-10-17T10:13:17.418Z,66.10
2022-10-17T10:15:50.827Z,65.89
2022-10-17T10:18:37.154Z,65.56
2022-10-17T10:21:12.974Z,65.62
2022-10-17T10:23:46.750Z,64.75
2022-10-17T10:26:24.818Z,65.01
2022-10-17T10:29:00.099Z,64.01
2022-10-17T10:31:39.006Z,64.85
2022-10-17T10:34:35.813Z,64.51
2022-10-17T10:37:18.698Z,64.63
2022-10-17T10:39:52.909Z,64.63
2022-10-17T10:42:30.238Z,64.45
2022-10-17T10:45:23.693Z,64.33
2022-10-17T10:48:04.125Z,64.51
2022-10-17T10:50:44.392Z,64.80
2022-10-17T10:53:34.768Z,64.76
2022-10-17T10:56:13.527Z,63.83
2022-10-17T10:58:55.218Z,63.39
2022-10-17T11:01:36.343Z,63.17
2022-10-17T11:04:22.128Z,63.10
2022-10-17T11:07:00.211Z,62.29
2022-10-17T11:09:43.830Z,62.48
2022-10-17T11:12:20.024Z,60.91
2022-10-17T11:14:58.835Z,59.96
2022-10-17T11:17:38.086Z,60.20
2022-10-17T11:20:26.105Z,59.32
2022-10-17T11:23:24.874Z,59.86
2022-10-17T11:26:05.178Z,60.14
2022-10-17T11:28:36.980Z,60.32
2022-10-17T11:31:14.682Z,59.84
2022-10-17T11:33:50.084Z,60.05
2022-10-17T11:36:27.296Z,59.57
2022-10-17T11:39:02.713Z,59.34
2022-10-17T11:41:40.604Z,58.14
2022-10-17T11:44:20.917Z,56.38
2022-10-17T11:46:55.820Z,57.19
2022-10-17T11:49:34.212Z,56.77
2022-10-17T11:52:43.887Z,56.82
2022-10-17T11:55:18.847Z,56.09
2022-10-17T11:58:02.939Z,55.19
2022-10-17T12:01:02.567Z,56.29
2022-10-17T12:03:49.495Z,56.70
2022-10-17T12:06:32.638Z,55.57
2022-10-17T12:09:11.320Z,54.98
2022-10-17T12:11:55.964Z,54.72
2022-10-17T12:14:48.490Z,54.44
2022-10-17T12:17:38.918Z,54.42
2022-10-17T12:20:34.705Z,54.54
2022-10-17T12:23:24.771Z,54.47
2022-10-17T12:26:01.502Z,53.45
2022-10-17T12:28:47.782Z,53.18
2022-10-17T12:31:34.139Z,54.01
2022-10-17T12:34:06.897Z,53.65
2022-10-17T12:36:42.357Z,53.91
2022-10-17T12:39:46.792Z,53.45
2022-10-17T12:42:46.694Z,53.00
2022-10-17T12:45:53.033Z,53.23
2022-10-17T12:49:04.744Z,53.40
2022-10-17T12:52:06.008Z,53.48
2022-10-17T12:54:53.540Z,52.76
2022-10-17T12:57:38.691Z,53.56
2022-10-17T13:00:29.439Z,53.39
2022-10-17T13:03:07.880Z,52.38
2022-10-17T13:05:42.321Z,52.88
2022-10-17T13:08:20.461Z,53.48
2022-10-17T13:10:55.183Z,53.54
2022-10-17T13:13:36.831Z,53.63
2022-10-17T13:16:28.363Z,52.87
2022-10-17T13:19:00.401Z,53.17
2022-10-17T13:21:33.195Z,53.03
2022-10-17T13:24:22.816Z,52.22
2022-10-17T13:26:54.362Z,52.87
2022-10-17T13:29:28.603Z,52.91
2022-10-17T13:32:04.011Z,52.99
2022-10-17T13:34:36.859Z,52.63
2022-10-17T13:37:12.369Z,52.58
2022-10-17T13:39:55.312Z,52.95
2022-10-17T13:42:30.486Z,52.59
2022-10-17T13:45:02.673Z,53.02
2022-10-17T13:47:40.396Z,52.68
2022-10-17T13:50:43.483Z,52.93
2022-10-17T13:53:26.541Z,53.18
2022-10-17T13:56:22.880Z,53.07
2022-10-17T13:58:53.662Z,53.00
2022-10-17T14:01:27.992Z,53.34
2022-10-17T14:04:09.023Z,53.19
2022-10-17T14:06:47.871Z,53.19
2022-10-17T14:09:26.274Z,53.39
2022-10-17T14:12:04.802Z,53.52
2022-10-17T14:14:58.034Z,53.68
2022-10-17T14:17:31.180Z,54.00
2022-10-17T14:20:34.113Z,53.81
2022-10-17T14:23:21.965Z,54.12
2022-10-17T14:25:49.055Z,54.09
2022-10-17T14:28:23.583Z,54.56
2022-10-17T14:31:10.673Z,54.66
2022-10-17T14:33:50.599Z,54.88
2022-10-17T14:36:34.338Z,54.88
2022-10-17T14:39:14.089Z,55.04
2022-10-17T14:41:47.234Z,55.28
2022-10-17T14:44:26.422Z,55.35
2022-10-17T14:47:18.267Z,55.43
2022-10-17T14:50:03.503Z,55.59
2022-10-17T14:52:40.949Z,55.79
2022-10-17T14:55:27.450Z,55.97
2022-10-17T14:57:59.076Z,56.18
2022-10-17T15:00:30.957Z,56.45
2022-10-17T15:03:02.584Z,56.60
2022-10-17T15:05:35.695Z,56.86
2022-10-17T15:08:12.251Z,57.04
2022-10-17T15:10:44.694Z,57.22
2022-10-17T15:13:27.640Z,57.52
2022-10-17T15:16:00.533Z,57.66
2022-10-17T15:18:32.626Z,57.96
2022-10-17T15:21:05.359Z,58.18
2022-10-17T15:23:38.239Z,58.34
2022-10-17T15:26:16.433Z,58.67
2022-10-17T15:28:49.582Z,58.90
2022-10-17T15:31:23.168Z,59.08
2022-10-17T15:33:55.086Z,59.22
2022-10-17T15:36:30.308Z,59.42
2022-10-17T15:39:02.940Z,59.67
2022-10-17T15:41:35.020Z,59.87
2022-10-17T15:44:07.127Z,59.93
2022-10-17T15:46:42.799Z,60.24
2022-10-17T15:49:17.356Z,60.41
2022-10-17T15:51:54.374Z,60.64
2022-10-17T15:54:27.135Z,60.81
2022-10-17T15:56:58.831Z,60.96
2022-10-17T15:59:34.752Z,61.16
2022-10-17T16:02:12.633Z,61.42
2022-10-17T16:04:44.935Z,61.63
2022-10-17T16:07:16.974Z,61.68
2022-10-17T16:09:48.852Z,61.97
2022-10-17T16:12:28.129Z,62.03
2022-10-17T16:14:59.855Z,62.13
2022-10-17T16:17:31.822Z,62.41
2022-10-17T16:20:03.529Z,62.53
2022-10-17T16:22:37.025Z,62.75
2022-10-17T16:25:19.607Z,62.77
2022-10-17T16:27:52.709Z,62.98
2022-10-17T16:30:32.830Z,63.26
2022-10-17T16:33:06.230Z,63.51
2022-10-17T16:35:37.942Z,63.89
2022-10-17T16:38:10.113Z,63.91
2022-10-17T16:40:49.947Z,64.21
2022-10-17T16:43:21.535Z,64.36
2022-10-17T16:45:53.197Z,64.45
2022-10-17T16:48:29.517Z,64.77
2022-10-17T16:51:10.403Z,64.76
2022-10-17T16:53:43.942Z,65.00
2022-10-17T16:56:18.073Z,65.16
2022-10-17T16:58:50.470Z,65.38
2022-10-17T17:01:24.524Z,65.66
2022-10-17T17:03:56.276Z,65.71
2022-10-17T17:06:29.770Z,66.09
2022-10-17T17:09:01.320Z,66.03
2022-10-17T17:11:38.060Z,66.30
2022-10-17T17:14:10.431Z,66.41
2022-10-17T17:16:43.434Z,66.73
2022-10-17T17:19:17.573Z,66.90
2022-10-17T17:21:51.012Z,66.96
2022-10-17T17:24:24.003Z,67.10
2022-10-17T17:26:57.047Z,67.26
2022-10-17T17:29:28.638Z,67.45
2022-10-17T17:32:00.192Z,67.67
2022-10-17T17:34:32.501Z,67.80
2022-10-17T17:37:04.258Z,67.99
2022-10-17T17:39:36.006Z,68.06
2022-10-17T17:42:07.588Z,68.18
2022-10-17T17:44:39.155Z,68.29
2022-10-17T17:47:10.809Z,68.37
2022-10-17T17:49:42.383Z,68.54
2022-10-17T17:52:14.004Z,68.58
2022-10-17T17:54:46.808Z,68.79
2022-10-17T17:57:18.427Z,68.79
2022-10-17T17:59:50.220Z,69.08
2022-10-17T18:02:21.768Z,69.27
2022-10-17T18:04:54.374Z,69.28
2022-10-17T18:07:26.375Z,69.37
2022-10-17T18:09:58.158Z,69.28
2022-10-17T18:12:31.297Z,69.36
2022-10-17T18:15:03.965Z,69.36
2022-10-17T18:17:35.833Z,69.18
2022-10-17T18:20:11.773Z,69.52
2022-10-17T18:22:43.372Z,69.51
2022-10-17T18:25:15.328Z,70.38
2022-10-17T18:27:48.520Z,70.44
2022-10-17T18:30:25.486Z,69.99
2022-10-17T18:32:58.949Z,70.05
2022-10-17T18:35:30.549Z,69.95
2022-10-17T18:38:02.164Z,69.95
2022-10-17T18:40:33.759Z,70.06
2022-10-17T18:43:06.311Z,70.01
2022-10-17T18:45:38.701Z,70.04
2022-10-17T18:48:10.789Z,70.19
2022-10-17T18:50:42.595Z,70.25
2022-10-17T18:53:14.150Z,70.32
2022-10-17T18:58:23.488Z,70.50
2022-10-17T19:00:55.079Z,70.60
2022-10-17T19:03:26.608Z,70.67
2022-10-17T19:06:01.204Z,70.67
2022-10-17T19:08:32.934Z,70.88
2022-10-17T19:11:09.911Z,70.93
2022-10-17T19:13:42.609Z,70.99
2022-10-17T19:16:16.593Z,71.35
2022-10-17T19:18:52.294Z,71.22
2022-10-17T19:21:24.227Z,71.56
2022-10-17T19:23:57.444Z,71.64
2022-10-17T19:26:32.346Z,72.09
2022-10-17T19:29:04.571Z,72.04
2022-10-17T19:31:37.194Z,71.98
2022-10-17T19:34:08.735Z,72.04
2022-10-17T19:36:40.927Z,72.06
2022-10-17T19:39:15.104Z,72.16
2022-10-17T19:41:48.707Z,72.19
2022-10-17T19:44:20.493Z,72.30
2022-10-17T19:46:52.105Z,72.24
2022-10-17T19:49:23.629Z,72.22
2022-10-17T19:51:55.200Z,72.30
2022-10-17T19:54:26.741Z,72.23
2022-10-17T19:56:58.475Z,72.54
2022-10-17T19:59:30.077Z,72.49
2022-10-17T20:02:01.832Z,72.69
2022-10-17T20:04:33.500Z,72.79
2022-10-17T20:07:05.063Z,73.08
2022-10-17T20:09:36.790Z,72.81
2022-10-17T20:12:08.978Z,72.88
2022-10-17T20:14:41.201Z,72.97
2022-10-17T20:17:12.858Z,72.76
2022-10-17T20:19:44.726Z,72.87
2022-10-17T20:22:16.445Z,72.98
2022-10-17T20:24:48.210Z,73.16
2022-10-17T20:27:22.165Z,73.17
2022-10-17T20:29:55.946Z,73.19
2022-10-17T20:32:27.705Z,73.35
2022-10-17T20:34:59.622Z,73.36
2022-10-17T20:37:36.392Z,73.66
2022-10-17T20:40:34.700Z,74.09
2022-10-17T20:43:09.395Z,73.73
2022-10-17T20:45:50.782Z,73.71
2022-10-17T20:48:23.577Z,73.84
2022-10-17T20:50:55.995Z,73.95
2022-10-17T20:53:42.804Z,73.89
2022-10-17T20:56:22.142Z,73.88
2022-10-17T20:58:55.723Z,73.97
2022-10-17T21:01:29.768Z,73.94
2022-10-17T21:04:21.296Z,74.11
2022-10-17T21:06:53.670Z,74.21
2022-10-17T21:09:25.277Z,74.24
2022-10-17T21:11:57.944Z,74.26
2022-10-17T21:14:29.558Z,74.12
2022-10-17T21:17:04.932Z,74.13
2022-10-17T21:19:36.981Z,74.20
2022-10-17T21:22:09.357Z,74.12
2022-10-17T21:24:41.179Z,74.19
2022-10-17T21:27:17.671Z,74.39
2022-10-17T21:29:50.096Z,74.63
2022-10-17T21:32:47.298Z,74.60
2022-10-17T21:35:14.051Z,74.64
2022-10-17T21:37:45.878Z,74.75
2022-10-17T21:40:17.414Z,74.63
2022-10-17T21:42:49.879Z,74.54
2022-10-17T21:45:25.856Z,74.63
2022-10-17T21:48:13.598Z,74.90
2022-10-17T21:50:45.375Z,74.80
2022-10-17T21:53:17.755Z,74.96
2022-10-17T21:55:49.336Z,74.96
2022-10-17T21:58:21.224Z,74.97
2022-10-17T22:00:52.783Z,75.08
2022-10-17T22:03:26.898Z,75.14
2022-10-17T22:06:07.057Z,75.06
2022-10-17T22:08:51.113Z,75.01
2022-10-17T22:11:24.862Z,75.03
2022-10-17T22:13:59.637Z,75.11
2022-10-17T22:16:31.357Z,75.17
2022-10-17T22:19:06.421Z,75.07
2022-10-17T22:21:38.970Z,75.07
2022-10-17T22:24:14.139Z,75.29
2022-10-17T22:26:47.451Z,75.42
2022-10-17T22:29:19.858Z,75.43
2022-10-17T22:31:51.403Z,75.27
2022-10-17T22:34:24.535Z,75.42
2022-10-17T22:36:56.108Z,75.43
2022-10-17T22:39:27.729Z,75.37
2022-10-17T22:41:59.287Z,75.53
2022-10-17T22:44:31.706Z,75.57
2022-10-17T22:47:03.243Z,75.57
2022-10-17T22:49:35.731Z,75.35
2022-10-17T22:52:07.597Z,75.21
2022-10-17T22:54:40.007Z,75.36
2022-10-17T22:57:11.547Z,75.36
2022-10-17T22:59:43.162Z,75.72
2022-10-17T23:02:14.857Z,75.70
2022-10-17T23:04:48.367Z,75.33
2022-10-17T23:07:19.889Z,75.58
2022-10-17T23:09:51.601Z,75.67
2022-10-17T23:12:23.453Z,75.45
2022-10-17T23:14:56.669Z,75.34
2022-10-17T23:17:28.185Z,75.27
2022-10-17T23:19:59.823Z,75.35
2022-10-17T23:22:31.505Z,75.27
2022-10-17T23:25:05.081Z,75.20
2022-10-17T23:27:38.114Z,75.36
2022-10-17T23:30:21.561Z,75.34
2022-10-17T23:32:54.281Z,75.40
2022-10-17T23:35:25.926Z,75.51
2022-10-17T23:37:57.555Z,75.61
2022-10-17T23:42:21.285Z,75.83
2022-10-17T23:44:53.302Z,75.87
2022-10-17T23:47:24.970Z,75.80
2022-10-17T23:49:56.512Z,75.69
2022-10-17T23:52:30.884Z,75.44
2022-10-17T23:55:02.492Z,75.48
2022-10-17T23:57:34.491Z,75.48
